createdAt,value
2017-05-02T00:00:05.480Z,12.2
2017-05-02T00:00:45.988Z,12.1
2017-05-02T00:01:26.519Z,12.04
2017-05-02T00:02:07.030Z,12.14
2017-05-02T00:02:47.554Z,12.1
2017-05-02T00:03:28.079Z,12.04
2017-05-02T00:04:08.645Z,12.16
2017-05-02T00:04:49.114Z,12.04
2017-05-02T00:05:29.623Z,12.01
2017-05-02T00:06:10.152Z,12.04
2017-05-02T00:06:50.680Z,12.05
2017-05-02T00:07:31.179Z,11.95
2017-05-02T00:08:11.689Z,11.96
2017-05-02T00:08:52.204Z,12.01
2017-05-02T00:09:32.710Z,11.9
2017-05-02T00:10:13.242Z,12.05
2017-05-02T00:10:53.719Z,12.12
2017-05-02T00:11:34.242Z,12.13
2017-05-02T00:12:14.753Z,12.12
2017-05-02T00:12:55.259Z,12.1
2017-05-02T00:13:35.768Z,12.13
2017-05-02T00:14:16.278Z,11.99
2017-05-02T00:14:56.800Z,12.14
2017-05-02T00:15:37.296Z,12.17
2017-05-02T00:16:17.827Z,12.12
2017-05-02T00:16:58.319Z,12.09
2017-05-02T00:17:38.830Z,12.1
2017-05-02T00:18:19.347Z,11.96
2017-05-02T00:18:59.862Z,11.99
2017-05-02T00:19:40.377Z,12.04
2017-05-02T00:20:20.915Z,11.98
2017-05-02T00:21:01.419Z,12.02
2017-05-02T00:21:41.936Z,12.04
2017-05-02T00:22:22.429Z,11.99
2017-05-02T00:23:02.947Z,12.12
2017-05-02T00:23:43.459Z,12.07
2017-05-02T00:24:23.961Z,12.02
2017-05-02T00:25:04.480Z,12.07
2017-05-02T00:25:44.995Z,12.04
2017-05-02T00:26:25.488Z,12.07
2017-05-02T00:27:05.974Z,11.96
2017-05-02T00:27:46.515Z,11.99
2017-05-02T00:28:27.008Z,11.9
2017-05-02T00:29:07.478Z,11.76
2017-05-02T00:29:47.976Z,11.79
2017-05-02T00:30:28.474Z,11.8
2017-05-02T00:31:08.971Z,11.9
2017-05-02T00:31:49.460Z,11.9
2017-05-02T00:32:29.942Z,11.9
2017-05-02T00:33:10.457Z,11.85
2017-05-02T00:33:50.921Z,11.78
2017-05-02T00:34:31.451Z,11.72
2017-05-02T00:35:12.006Z,11.72
2017-05-02T00:35:52.501Z,11.86
2017-05-02T00:36:33.027Z,11.9
2017-05-02T00:37:13.463Z,11.91
2017-05-02T00:37:53.954Z,11.98
2017-05-02T00:38:34.459Z,11.91
2017-05-02T00:39:14.975Z,12.04
2017-05-02T00:39:55.484Z,11.98
2017-05-02T00:40:36.028Z,11.86
2017-05-02T00:41:16.467Z,11.86
2017-05-02T00:41:56.983Z,11.8
2017-05-02T00:42:37.506Z,11.85
2017-05-02T00:43:18.025Z,11.75
2017-05-02T00:43:58.506Z,11.85
2017-05-02T00:44:39.033Z,11.94
2017-05-02T00:45:19.518Z,11.86
2017-05-02T00:46:00.024Z,11.98
2017-05-02T00:46:40.553Z,11.86
2017-05-02T00:47:21.058Z,11.85
2017-05-02T00:48:01.581Z,11.95
2017-05-02T00:48:42.085Z,11.82
2017-05-02T00:49:22.609Z,11.8
2017-05-02T00:50:03.113Z,11.82
2017-05-02T00:50:43.602Z,11.98
2017-05-02T00:51:24.102Z,11.73
2017-05-02T00:52:04.631Z,11.78
2017-05-02T00:52:45.151Z,11.78
2017-05-02T00:53:25.687Z,11.78
2017-05-02T00:54:06.144Z,11.88
2017-05-02T00:54:46.631Z,11.86
2017-05-02T00:55:27.137Z,11.79
2017-05-02T00:56:07.648Z,11.85
2017-05-02T00:56:48.170Z,11.86
2017-05-02T00:57:28.655Z,11.85
2017-05-02T00:58:09.138Z,11.78
2017-05-02T00:58:49.687Z,11.76
2017-05-02T00:59:30.190Z,11.79
2017-05-02T01:00:10.686Z,11.65
2017-05-02T01:00:51.171Z,11.58
2017-05-02T01:01:31.648Z,11.6
2017-05-02T01:02:12.166Z,11.52
2017-05-02T01:02:52.658Z,11.57
2017-05-02T01:03:33.135Z,11.46
2017-05-02T01:04:13.605Z,11.55
2017-05-02T01:04:54.095Z,11.43
2017-05-02T01:05:34.602Z,11.58
2017-05-02T01:06:15.066Z,11.6
2017-05-02T01:06:55.616Z,11.58
2017-05-02T01:07:36.058Z,11.54
2017-05-02T01:08:16.537Z,11.46
2017-05-02T01:08:57.049Z,11.46
2017-05-02T01:09:37.532Z,11.46
2017-05-02T01:10:17.995Z,11.47
2017-05-02T01:10:58.485Z,11.47
2017-05-02T01:11:38.989Z,11.46
2017-05-02T01:12:19.485Z,11.44
2017-05-02T01:12:59.965Z,11.51
2017-05-02T01:13:40.466Z,11.47
2017-05-02T01:14:20.978Z,11.46
2017-05-02T01:15:01.480Z,11.42
2017-05-02T01:15:42.007Z,11.46
2017-05-02T01:16:22.513Z,11.51
2017-05-02T01:17:03.007Z,11.54
2017-05-02T01:17:43.489Z,11.47
2017-05-02T01:18:24.007Z,11.46
2017-05-02T01:19:04.531Z,11.52
2017-05-02T01:19:45.083Z,11.43
2017-05-02T01:20:25.518Z,11.51
2017-05-02T01:21:06.020Z,11.54
2017-05-02T01:21:46.555Z,11.43
2017-05-02T01:22:27.023Z,11.42
2017-05-02T01:23:07.541Z,11.29
2017-05-02T01:23:48.019Z,11.21
2017-05-02T01:24:28.520Z,11.21
2017-05-02T01:25:09.023Z,11.17
2017-05-02T01:25:49.486Z,11.17
2017-05-02T01:26:29.984Z,11.15
2017-05-02T01:27:10.482Z,11.24
2017-05-02T01:27:50.981Z,11.19
2017-05-02T01:28:31.471Z,11.11
2017-05-02T01:29:11.978Z,11.15
2017-05-02T01:29:52.483Z,11.17
2017-05-02T01:30:32.975Z,11.24
2017-05-02T01:31:13.465Z,11.19
2017-05-02T01:31:53.947Z,11.21
2017-05-02T01:32:34.413Z,11.19
2017-05-02T01:33:14.942Z,11.25
2017-05-02T01:33:55.429Z,11.29
2017-05-02T01:34:35.880Z,11.37
2017-05-02T01:35:16.422Z,11.39
2017-05-02T01:35:56.880Z,11.4
2017-05-02T01:36:37.368Z,11.42
2017-05-02T01:37:17.881Z,11.42
2017-05-02T01:37:58.389Z,11.47
2017-05-02T01:38:38.913Z,11.42
2017-05-02T01:39:19.419Z,11.49
2017-05-02T01:39:59.945Z,11.52
2017-05-02T01:40:40.461Z,11.55
2017-05-02T01:41:20.983Z,11.54
2017-05-02T01:42:01.514Z,11.58
2017-05-02T01:42:42.021Z,11.6
2017-05-02T01:43:22.543Z,11.65
2017-05-02T01:44:03.041Z,11.61
2017-05-02T01:44:43.569Z,11.55
2017-05-02T01:45:24.061Z,11.64
2017-05-02T01:46:04.586Z,11.73
2017-05-02T01:46:45.084Z,11.72
2017-05-02T01:47:25.595Z,11.62
2017-05-02T01:48:06.101Z,11.7
2017-05-02T01:48:46.595Z,11.58
2017-05-02T01:49:27.081Z,11.51
2017-05-02T01:50:07.569Z,11.42
2017-05-02T01:50:48.109Z,11.42
2017-05-02T01:51:28.594Z,11.47
2017-05-02T01:52:09.113Z,11.43
2017-05-02T01:52:49.637Z,11.37
2017-05-02T01:53:30.160Z,11.49
2017-05-02T01:54:10.670Z,11.54
2017-05-02T01:54:51.185Z,11.51
2017-05-02T01:55:31.689Z,11.58
2017-05-02T01:56:12.207Z,11.57
2017-05-02T01:56:52.713Z,11.61
2017-05-02T01:57:33.226Z,11.69
2017-05-02T01:58:13.749Z,11.67
2017-05-02T01:58:54.256Z,11.73
2017-05-02T01:59:34.759Z,11.64
2017-05-02T02:00:15.268Z,11.61
2017-05-02T02:00:55.793Z,11.62
2017-05-02T02:01:36.306Z,11.65
2017-05-02T02:02:16.821Z,11.67
2017-05-02T02:02:57.334Z,11.7
2017-05-02T02:03:37.847Z,11.67
2017-05-02T02:04:18.370Z,11.7
2017-05-02T02:04:58.839Z,11.69
2017-05-02T02:05:39.355Z,11.64
2017-05-02T02:06:19.878Z,11.58
2017-05-02T02:07:00.393Z,11.69
2017-05-02T02:07:40.869Z,11.67
2017-05-02T02:08:21.392Z,11.64
2017-05-02T02:09:01.893Z,11.61
2017-05-02T02:09:42.416Z,11.73
2017-05-02T02:10:22.958Z,11.61
2017-05-02T02:11:03.416Z,11.61
2017-05-02T02:11:43.921Z,11.64
2017-05-02T02:12:24.459Z,11.55
2017-05-02T02:13:04.941Z,11.61
2017-05-02T02:13:45.451Z,11.6
2017-05-02T02:14:25.955Z,11.47
2017-05-02T02:15:06.464Z,11.62
2017-05-02T02:15:47.009Z,11.6
2017-05-02T02:16:27.485Z,11.65
2017-05-02T02:17:07.986Z,11.54
2017-05-02T02:17:48.498Z,11.55
2017-05-02T02:18:28.995Z,11.61
2017-05-02T02:19:09.496Z,11.64
2017-05-02T02:19:50.010Z,11.61
2017-05-02T02:20:30.522Z,11.7
2017-05-02T02:21:11.022Z,11.65
2017-05-02T02:21:51.529Z,11.7
2017-05-02T02:22:32.036Z,11.64
2017-05-02T02:23:12.541Z,11.61
2017-05-02T02:23:53.049Z,11.75
2017-05-02T02:24:33.577Z,11.78
2017-05-02T02:25:14.094Z,11.86
2017-05-02T02:25:54.614Z,11.83
2017-05-02T02:26:35.126Z,11.75
2017-05-02T02:27:15.646Z,11.83
2017-05-02T02:27:56.137Z,11.83
2017-05-02T02:28:36.790Z,11.85
2017-05-02T02:29:17.195Z,11.8
2017-05-02T02:29:57.676Z,11.82
2017-05-02T02:30:38.172Z,11.8
2017-05-02T02:31:18.682Z,11.82
2017-05-02T02:31:59.216Z,11.83
2017-05-02T02:32:39.702Z,11.75
2017-05-02T02:33:20.170Z,11.69
2017-05-02T02:34:00.683Z,11.64
2017-05-02T02:34:41.231Z,11.73
2017-05-02T02:35:21.720Z,11.65
2017-05-02T02:36:02.226Z,11.7
2017-05-02T02:36:42.685Z,11.69
2017-05-02T02:37:23.234Z,11.72
2017-05-02T02:38:03.706Z,11.76
2017-05-02T02:38:44.222Z,11.86
2017-05-02T02:39:24.765Z,11.78
2017-05-02T02:40:05.206Z,11.78
2017-05-02T02:40:45.730Z,11.65
2017-05-02T02:41:26.241Z,11.72
2017-05-02T02:42:06.759Z,11.65
2017-05-02T02:42:47.302Z,11.73
2017-05-02T02:43:27.820Z,11.67
2017-05-02T02:44:09.187Z,11.69
2017-05-02T02:44:49.024Z,11.76
2017-05-02T02:45:29.555Z,11.72
2017-05-02T02:46:10.055Z,11.75
2017-05-02T02:46:50.579Z,11.85
2017-05-02T02:47:31.097Z,11.76
2017-05-02T02:48:11.610Z,11.8
2017-05-02T02:48:52.131Z,11.88
2017-05-02T02:49:32.645Z,11.85
2017-05-02T02:50:13.138Z,11.95
2017-05-02T02:50:53.635Z,11.94
2017-05-02T02:51:34.209Z,12.01
2017-05-02T02:52:14.751Z,11.9
2017-05-02T02:52:55.232Z,11.91
2017-05-02T02:53:35.750Z,11.91
2017-05-02T02:54:16.375Z,11.94
2017-05-02T02:54:56.876Z,11.95
2017-05-02T02:55:37.401Z,11.91
2017-05-02T02:56:17.931Z,11.83
2017-05-02T02:56:58.453Z,11.75
2017-05-02T02:57:38.959Z,11.78
2017-05-02T02:58:19.460Z,11.78
2017-05-02T02:58:59.983Z,11.83
2017-05-02T02:59:40.501Z,11.82
2017-05-02T03:00:21.014Z,11.76
2017-05-02T03:01:01.541Z,11.78
2017-05-02T03:01:42.066Z,11.8
2017-05-02T03:02:22.638Z,11.86
2017-05-02T03:03:03.142Z,11.79
2017-05-02T03:03:43.650Z,11.78
2017-05-02T03:04:24.162Z,11.91
2017-05-02T03:05:04.681Z,11.9
2017-05-02T03:05:45.348Z,11.85
2017-05-02T03:06:25.769Z,11.86
2017-05-02T03:07:06.231Z,11.78
2017-05-02T03:07:46.710Z,11.86
2017-05-02T03:08:27.240Z,11.86
2017-05-02T03:09:07.703Z,11.85
2017-05-02T03:09:48.186Z,11.99
2017-05-02T03:10:28.713Z,11.96
2017-05-02T03:11:09.211Z,11.95
2017-05-02T03:11:49.723Z,11.83
2017-05-02T03:12:30.271Z,11.9
2017-05-02T03:13:10.777Z,11.98
2017-05-02T03:13:51.264Z,11.98
2017-05-02T03:14:31.775Z,11.98
2017-05-02T03:15:12.295Z,11.94
2017-05-02T03:15:52.825Z,11.94
2017-05-02T03:16:33.342Z,11.88
2017-05-02T03:17:13.866Z,11.82
2017-05-02T03:17:54.396Z,11.86
2017-05-02T03:18:34.908Z,11.88
2017-05-02T03:19:15.425Z,11.94
2017-05-02T03:19:55.932Z,11.86
2017-05-02T03:20:36.463Z,11.88
2017-05-02T03:21:16.977Z,11.75
2017-05-02T03:21:57.484Z,11.78
2017-05-02T03:22:38.012Z,11.82
2017-05-02T03:23:18.509Z,11.72
2017-05-02T03:23:59.036Z,11.78
2017-05-02T03:24:39.503Z,11.86
2017-05-02T03:25:20.038Z,11.88
2017-05-02T03:26:00.634Z,11.95
2017-05-02T03:26:41.075Z,11.83
2017-05-02T03:27:21.596Z,11.99
2017-05-02T03:28:02.085Z,11.91
2017-05-02T03:28:42.593Z,11.83
2017-05-02T03:29:23.089Z,11.9
2017-05-02T03:30:03.583Z,11.94
2017-05-02T03:30:44.076Z,11.86
2017-05-02T03:31:24.579Z,11.86
2017-05-02T03:32:05.181Z,11.83
2017-05-02T03:32:45.602Z,11.83
2017-05-02T03:33:26.089Z,11.79
2017-05-02T03:34:06.599Z,11.83
2017-05-02T03:34:47.101Z,11.76
2017-05-02T03:35:27.622Z,11.76
2017-05-02T03:36:08.144Z,11.75
2017-05-02T03:36:48.683Z,11.72
2017-05-02T03:37:29.193Z,11.76
2017-05-02T03:38:09.721Z,11.73
2017-05-02T03:38:50.303Z,11.61
2017-05-02T03:39:30.828Z,11.72
2017-05-02T03:40:11.335Z,11.7
2017-05-02T03:40:51.872Z,11.61
2017-05-02T03:41:32.374Z,11.64
2017-05-02T03:42:12.888Z,11.61
2017-05-02T03:42:53.382Z,11.61
2017-05-02T03:43:33.903Z,11.65
2017-05-02T03:44:14.374Z,11.69
2017-05-02T03:44:54.892Z,11.65
2017-05-02T03:45:35.398Z,11.6
2017-05-02T03:46:15.894Z,11.69
2017-05-02T03:46:56.400Z,11.67
2017-05-02T03:47:36.885Z,11.67
2017-05-02T03:48:17.387Z,11.69
2017-05-02T03:48:57.906Z,11.79
2017-05-02T03:49:38.416Z,11.79
2017-05-02T03:50:19.269Z,11.85
2017-05-02T03:50:59.840Z,11.88
2017-05-02T03:51:40.328Z,11.9
2017-05-02T03:52:20.819Z,12.01
2017-05-02T03:53:01.300Z,11.94
2017-05-02T03:53:41.845Z,11.94
2017-05-02T03:54:22.402Z,11.96
2017-05-02T03:55:03.383Z,11.94
2017-05-02T03:55:43.875Z,12.01
2017-05-02T03:56:24.431Z,11.99
2017-05-02T03:57:04.946Z,12.05
2017-05-02T03:57:45.464Z,11.95
2017-05-02T03:58:25.984Z,11.86
2017-05-02T03:59:06.483Z,11.9
2017-05-02T03:59:46.995Z,11.95
2017-05-02T04:00:27.510Z,11.94
2017-05-02T04:01:08.018Z,11.99
2017-05-02T04:01:48.503Z,12.02
2017-05-02T04:02:29.010Z,12.02
2017-05-02T04:03:09.519Z,12.09
2017-05-02T04:03:50.037Z,12.07
2017-05-02T04:04:30.505Z,12.14
2017-05-02T04:05:11.000Z,12.17
2017-05-02T04:05:51.489Z,12.12
2017-05-02T04:06:31.974Z,12.14
2017-05-02T04:07:12.490Z,12.1
2017-05-02T04:07:53.031Z,12.17
2017-05-02T04:08:33.477Z,12.16
2017-05-02T04:09:13.965Z,12.1
2017-05-02T04:09:54.476Z,12.07
2017-05-02T04:10:34.933Z,12.02
2017-05-02T04:11:15.443Z,12.05
2017-05-02T04:11:55.982Z,11.99
2017-05-02T04:12:36.396Z,11.98
2017-05-02T04:13:16.925Z,11.94
2017-05-02T04:13:57.417Z,11.85
2017-05-02T04:14:37.932Z,11.73
2017-05-02T04:15:18.420Z,11.64
2017-05-02T04:15:58.888Z,11.7
2017-05-02T04:16:39.375Z,11.7
2017-05-02T04:17:19.872Z,11.61
2017-05-02T04:18:00.356Z,11.73
2017-05-02T04:18:40.877Z,11.65
2017-05-02T04:19:21.385Z,11.64
2017-05-02T04:20:01.884Z,11.67
2017-05-02T04:20:42.403Z,11.72
2017-05-02T04:21:22.914Z,11.64
2017-05-02T04:22:03.444Z,11.75
2017-05-02T04:22:43.962Z,11.78
2017-05-02T04:23:24.443Z,11.82
2017-05-02T04:24:04.960Z,11.9
2017-05-02T04:24:45.489Z,11.85
2017-05-02T04:25:26.008Z,11.85
2017-05-02T04:26:06.527Z,11.76
2017-05-02T04:26:47.040Z,11.79
2017-05-02T04:27:27.719Z,11.72
2017-05-02T04:28:08.225Z,11.8
2017-05-02T04:28:48.740Z,11.82
2017-05-02T04:29:29.242Z,11.83
2017-05-02T04:30:09.770Z,11.8
2017-05-02T04:30:50.272Z,11.83
2017-05-02T04:31:30.768Z,11.76
2017-05-02T04:32:11.274Z,11.98
2017-05-02T04:32:51.793Z,11.91
2017-05-02T04:33:32.304Z,11.98
2017-05-02T04:34:12.833Z,11.95
2017-05-02T04:34:53.334Z,11.98
2017-05-02T04:35:33.857Z,11.98
2017-05-02T04:36:14.365Z,11.96
2017-05-02T04:36:54.886Z,12.05
2017-05-02T04:37:35.392Z,12.1
2017-05-02T04:38:15.938Z,12.04
2017-05-02T04:38:56.407Z,11.98
2017-05-02T04:39:36.908Z,12.09
2017-05-02T04:40:17.429Z,12.04
2017-05-02T04:40:57.927Z,12.02
2017-05-02T04:41:38.448Z,12.01
2017-05-02T04:42:18.962Z,11.98
2017-05-02T04:42:59.483Z,11.85
2017-05-02T04:43:40.002Z,11.94
2017-05-02T04:44:20.515Z,11.79
2017-05-02T04:45:01.041Z,11.85
2017-05-02T04:45:41.539Z,11.79
2017-05-02T04:46:22.049Z,11.75
2017-05-02T04:47:02.563Z,11.85
2017-05-02T04:47:43.074Z,11.83
2017-05-02T04:48:23.584Z,11.8
2017-05-02T04:49:04.099Z,11.88
2017-05-02T04:49:44.630Z,11.91
2017-05-02T04:50:25.132Z,12.01
2017-05-02T04:51:05.658Z,11.98
2017-05-02T04:51:46.210Z,11.99
2017-05-02T04:52:26.705Z,12.12
2017-05-02T04:53:07.215Z,12.01
2017-05-02T04:53:47.732Z,12.02
2017-05-02T04:54:28.247Z,11.99
2017-05-02T04:55:08.761Z,12.02
2017-05-02T04:55:49.278Z,12.05
2017-05-02T04:56:29.796Z,12.04
2017-05-02T04:57:10.305Z,12.05
2017-05-02T04:57:50.827Z,12.13
2017-05-02T04:58:31.326Z,12.13
2017-05-02T04:59:11.834Z,12.1
2017-05-02T04:59:52.352Z,12.09
2017-05-02T05:00:32.892Z,12.12
2017-05-02T05:01:13.383Z,12.07
2017-05-02T05:01:53.915Z,12.01
2017-05-02T05:02:34.405Z,12.07
2017-05-02T05:03:14.907Z,11.99
2017-05-02T05:03:55.389Z,11.99
2017-05-02T05:04:35.893Z,12.13
2017-05-02T05:05:16.416Z,12.17
2017-05-02T05:05:56.880Z,12.14
2017-05-02T05:06:37.449Z,12.16
2017-05-02T05:07:17.974Z,12.05
2017-05-02T05:07:58.437Z,12.16
2017-05-02T05:08:38.947Z,12.1
2017-05-02T05:09:19.458Z,12.1
2017-05-02T05:09:59.895Z,12.12
2017-05-02T05:10:40.391Z,12.13
2017-05-02T05:11:20.876Z,12.12
2017-05-02T05:12:01.385Z,12.14
2017-05-02T05:12:41.900Z,12.12
2017-05-02T05:13:22.375Z,12.07
2017-05-02T05:14:02.880Z,12.23
2017-05-02T05:14:43.364Z,12.24
2017-05-02T05:15:23.857Z,12.29
2017-05-02T05:16:04.340Z,12.27
2017-05-02T05:16:44.835Z,12.14
2017-05-02T05:17:25.338Z,12.13
2017-05-02T05:18:05.791Z,12.13
2017-05-02T05:18:46.436Z,12.1
2017-05-02T05:19:26.772Z,12.27
2017-05-02T05:20:07.259Z,12.28
2017-05-02T05:20:47.916Z,12.29
2017-05-02T05:21:28.438Z,12.28
2017-05-02T05:22:08.960Z,12.37
2017-05-02T05:22:49.436Z,12.31
2017-05-02T05:23:29.984Z,12.35
2017-05-02T05:24:10.442Z,12.38
2017-05-02T05:24:50.971Z,12.34
2017-05-02T05:25:31.447Z,12.38
2017-05-02T05:26:11.948Z,12.47
2017-05-02T05:28:10.205Z,12.38
2017-05-02T05:28:50.724Z,12.5
2017-05-02T05:29:31.245Z,12.47
2017-05-02T05:30:11.723Z,12.57
2017-05-02T05:30:52.218Z,12.54
2017-05-02T05:31:32.711Z,12.5
2017-05-02T05:32:13.197Z,12.59
2017-05-02T05:32:53.688Z,12.62
2017-05-02T05:33:34.164Z,12.64
2017-05-02T05:34:14.906Z,12.65
2017-05-02T05:34:55.364Z,12.62
2017-05-02T05:35:36.437Z,12.65
2017-05-02T05:36:16.648Z,12.6
2017-05-02T05:36:57.120Z,12.57
2017-05-02T05:37:37.747Z,12.6
2017-05-02T05:38:18.088Z,12.65
2017-05-02T05:38:58.546Z,12.72
2017-05-02T05:39:39.228Z,12.62
2017-05-02T05:40:19.539Z,12.6
2017-05-02T05:41:00.019Z,12.64
2017-05-02T05:41:40.890Z,12.83
2017-05-02T05:42:21.501Z,12.97
2017-05-02T05:43:01.958Z,13.11
2017-05-02T05:43:42.562Z,13.14
2017-05-02T05:44:22.988Z,13.3
2017-05-02T05:45:03.780Z,13.41
2017-05-02T05:45:44.191Z,13.48
2017-05-02T05:46:24.820Z,13.19
2017-05-02T05:47:05.375Z,13.14
2017-05-02T05:47:46.845Z,13.32
2017-05-02T05:48:27.568Z,13.42
2017-05-02T05:49:08.120Z,13.39
2017-05-02T05:49:48.649Z,13.22
2017-05-02T05:50:29.568Z,13.05
2017-05-02T05:51:10.192Z,13.08
2017-05-02T05:51:50.782Z,13.01
2017-05-02T05:52:31.306Z,12.82
2017-05-02T05:53:11.837Z,12.79
2017-05-02T05:53:52.315Z,12.95
2017-05-02T05:54:32.806Z,12.83
2017-05-02T05:55:13.253Z,12.82
2017-05-02T05:55:53.779Z,12.92
2017-05-02T05:56:34.233Z,12.96
2017-05-02T05:57:14.753Z,12.85
2017-05-02T05:57:55.244Z,12.9
2017-05-02T05:58:35.712Z,12.96
2017-05-02T05:59:16.230Z,12.95
2017-05-02T05:59:56.759Z,12.86
2017-05-02T06:00:37.295Z,12.92
2017-05-02T06:01:17.774Z,12.95
2017-05-02T06:01:58.245Z,12.92
2017-05-02T06:02:38.737Z,12.82
2017-05-02T06:03:19.244Z,12.83
2017-05-02T06:03:59.745Z,12.95
2017-05-02T06:04:40.533Z,12.96
2017-05-02T06:05:21.006Z,12.95
2017-05-02T06:06:01.620Z,12.96
2017-05-02T06:06:42.144Z,12.96
2017-05-02T06:07:22.637Z,12.82
2017-05-02T06:08:03.165Z,12.92
2017-05-02T06:08:43.654Z,12.86
2017-05-02T06:09:24.183Z,12.96
2017-05-02T06:10:04.687Z,12.92
2017-05-02T06:10:45.194Z,12.96
2017-05-02T06:11:25.711Z,13
2017-05-02T06:12:06.221Z,13.04
2017-05-02T06:12:46.718Z,13.05
2017-05-02T06:13:27.243Z,13.04
2017-05-02T06:14:07.742Z,13
2017-05-02T06:14:48.702Z,13.01
2017-05-02T06:15:29.212Z,13.1
2017-05-02T06:16:09.736Z,12.97
2017-05-02T06:16:50.245Z,13
2017-05-02T06:17:30.790Z,13.1
2017-05-02T06:18:11.294Z,13.1
2017-05-02T06:18:51.857Z,13.32
2017-05-02T06:19:32.315Z,13.45
2017-05-02T06:20:12.871Z,13.71
2017-05-02T06:20:53.415Z,13.82
2017-05-02T06:21:33.901Z,13.81
2017-05-02T06:22:14.393Z,14.03
2017-05-02T06:22:54.919Z,14.02
2017-05-02T06:23:35.450Z,14.02
2017-05-02T06:24:15.955Z,14
2017-05-02T06:24:56.464Z,13.89
2017-05-02T06:25:36.956Z,14.04
2017-05-02T06:26:17.455Z,14.2
2017-05-02T06:26:57.964Z,14.27
2017-05-02T06:27:38.496Z,14.32
2017-05-02T06:28:19.004Z,14.25
2017-05-02T06:28:59.529Z,14.39
2017-05-02T06:29:40.036Z,14.39
2017-05-02T06:30:20.617Z,14.45
2017-05-02T06:31:01.055Z,14.51
2017-05-02T06:31:41.576Z,14.58
2017-05-02T06:32:22.053Z,14.42
2017-05-02T06:33:02.549Z,14.22
2017-05-02T06:33:43.056Z,14.32
2017-05-02T06:34:23.592Z,14.24
2017-05-02T06:35:04.323Z,14.5
2017-05-02T06:35:44.839Z,14.68
2017-05-02T06:36:25.494Z,14.57
2017-05-02T06:37:06.352Z,14.64
2017-05-02T06:37:46.957Z,14.73
2017-05-02T06:38:27.362Z,14.77
2017-05-02T06:39:07.908Z,14.61
2017-05-02T06:39:48.343Z,14.42
2017-05-02T06:40:29.163Z,14.47
2017-05-02T06:41:09.663Z,14.64
2017-05-02T06:41:50.185Z,14.6
2017-05-02T06:42:30.628Z,14.65
2017-05-02T06:43:11.153Z,14.62
2017-05-02T06:43:51.641Z,14.39
2017-05-02T06:44:32.171Z,14.24
2017-05-02T06:45:13.598Z,14.27
2017-05-02T06:45:54.120Z,14.17
2017-05-02T06:46:34.637Z,14.14
2017-05-02T06:47:15.154Z,14.21
2017-05-02T06:47:55.688Z,14.15
2017-05-02T06:48:36.203Z,14.09
2017-05-02T06:49:16.692Z,14.04
2017-05-02T06:49:57.211Z,14.12
2017-05-02T06:50:37.704Z,14.22
2017-05-02T06:51:18.219Z,14.18
2017-05-02T06:51:58.731Z,14.22
2017-05-02T06:52:39.254Z,14.21
2017-05-02T06:53:19.762Z,14.27
2017-05-02T06:54:00.281Z,14.22
2017-05-02T06:54:40.778Z,14.06
2017-05-02T06:55:21.339Z,14.02
2017-05-02T06:56:01.868Z,14.15
2017-05-02T06:56:42.389Z,14.24
2017-05-02T06:57:22.886Z,14.29
2017-05-02T06:58:03.397Z,14.27
2017-05-02T06:58:43.913Z,14.25
2017-05-02T06:59:24.408Z,14.36
2017-05-02T07:00:04.935Z,14.36
2017-05-02T07:00:45.452Z,14.33
2017-05-02T07:01:25.973Z,14.22
2017-05-02T07:02:06.508Z,13.89
2017-05-02T07:02:47.002Z,13.88
2017-05-02T07:03:27.516Z,14.02
2017-05-02T07:04:08.031Z,13.97
2017-05-02T07:04:48.542Z,13.97
2017-05-02T07:05:29.036Z,13.96
2017-05-02T07:06:09.543Z,14.02
2017-05-02T07:06:50.023Z,13.99
2017-05-02T07:07:30.510Z,14.12
2017-05-02T07:08:11.026Z,13.89
2017-05-02T07:08:51.551Z,13.85
2017-05-02T07:09:32.083Z,14
2017-05-02T07:10:12.572Z,14.04
2017-05-02T07:10:53.098Z,14
2017-05-02T07:11:33.588Z,14.15
2017-05-02T07:12:14.076Z,14.25
2017-05-02T07:12:54.581Z,14.21
2017-05-02T07:13:35.097Z,14.5
2017-05-02T07:14:15.596Z,14.54
2017-05-02T07:14:56.108Z,14.62
2017-05-02T07:15:36.610Z,14.29
2017-05-02T07:16:17.133Z,14.42
2017-05-02T07:16:57.648Z,14.24
2017-05-02T07:17:38.156Z,14.28
2017-05-02T07:19:51.421Z,14.32
2017-05-02T07:20:31.938Z,14.29
2017-05-02T07:21:12.457Z,14.39
2017-05-02T07:21:52.963Z,14.47
2017-05-02T07:22:33.468Z,14.51
2017-05-02T07:23:14.014Z,14.55
2017-05-02T07:23:54.537Z,14.64
2017-05-02T07:24:35.049Z,14.78
2017-05-02T07:25:15.568Z,14.86
2017-05-02T07:25:56.095Z,15.03
2017-05-02T07:26:36.600Z,14.99
2017-05-02T07:27:17.109Z,15.02
2017-05-02T07:27:57.633Z,15.09
2017-05-02T07:28:38.163Z,15.1
2017-05-02T07:29:18.669Z,15.19
2017-05-02T07:29:59.188Z,15.27
2017-05-02T07:30:39.743Z,15.09
2017-05-02T07:31:20.226Z,15.19
2017-05-02T07:32:00.746Z,15.28
2017-05-02T07:32:41.266Z,15.36
2017-05-02T07:33:21.761Z,15.38
2017-05-02T07:34:02.268Z,15.46
2017-05-02T07:34:42.873Z,15.51
2017-05-02T07:35:23.352Z,15.5
2017-05-02T07:36:03.862Z,15.5
2017-05-02T07:36:44.378Z,15.54
2017-05-02T07:37:24.858Z,15.51
2017-05-02T07:38:05.396Z,15.38
2017-05-02T07:38:45.919Z,15.46
2017-05-02T07:39:26.414Z,15.36
2017-05-02T07:40:06.940Z,15.31
2017-05-02T07:40:47.471Z,15.31
2017-05-02T07:41:27.970Z,15.21
2017-05-02T07:42:08.504Z,15.23
2017-05-02T07:44:02.329Z,15.14
2017-05-02T07:44:42.859Z,15.09
2017-05-02T07:45:23.397Z,15.09
2017-05-02T07:46:03.914Z,14.99
2017-05-02T07:46:44.409Z,15.17
2017-05-02T07:47:24.933Z,15.07
2017-05-02T07:48:05.453Z,15.27
2017-05-02T07:48:45.959Z,15.2
2017-05-02T07:49:26.464Z,15.21
2017-05-02T07:50:06.972Z,15.2
2017-05-02T07:50:47.475Z,15.17
2017-05-02T07:51:27.968Z,15.14
2017-05-02T07:52:08.467Z,15.16
2017-05-02T07:52:48.989Z,15.21
2017-05-02T07:53:29.503Z,15.17
2017-05-02T07:54:10.024Z,15.16
2017-05-02T07:54:50.532Z,15.14
2017-05-02T07:55:31.265Z,15.01
2017-05-02T07:56:11.560Z,15.07
2017-05-02T07:56:52.028Z,14.99
2017-05-02T07:57:32.534Z,14.88
2017-05-02T07:58:13.062Z,14.78
2017-05-02T07:58:53.578Z,14.77
2017-05-02T07:59:34.103Z,14.81
2017-05-02T08:00:15.938Z,14.8
2017-05-02T08:00:56.422Z,14.8
2017-05-02T08:01:36.911Z,14.83
2017-05-02T08:02:17.442Z,14.91
2017-05-02T08:02:58.038Z,15.03
2017-05-02T08:04:51.335Z,15.16
2017-05-02T08:05:31.992Z,15.23
2017-05-02T08:06:12.373Z,15.28
2017-05-02T08:06:52.904Z,15.31
2017-05-02T08:07:33.411Z,15.31
2017-05-02T08:08:13.929Z,15.35
2017-05-02T08:08:54.466Z,15.25
2017-05-02T08:09:35.020Z,15.38
2017-05-02T08:10:15.617Z,15.38
2017-05-02T08:10:56.138Z,15.34
2017-05-02T08:11:36.641Z,15.34
2017-05-02T08:12:17.154Z,15.23
2017-05-02T08:12:57.773Z,15.21
2017-05-02T08:13:38.293Z,15.27
2017-05-02T08:14:18.925Z,15.25
2017-05-02T08:14:59.533Z,15.2
2017-05-02T08:15:40.047Z,15.23
2017-05-02T08:16:20.543Z,15.16
2017-05-02T08:17:01.054Z,15.17
2017-05-02T08:17:41.575Z,15.06
2017-05-02T08:18:22.094Z,15.07
2017-05-02T08:19:02.638Z,15.07
2017-05-02T08:19:43.395Z,15.02
2017-05-02T08:20:23.905Z,14.96
2017-05-02T08:21:04.399Z,14.78
2017-05-02T08:21:44.906Z,14.78
2017-05-02T08:22:25.445Z,14.95
2017-05-02T08:23:05.958Z,14.89
2017-05-02T08:23:46.454Z,14.89
2017-05-02T08:24:26.945Z,15.03
2017-05-02T08:25:07.454Z,15.03
2017-05-02T08:25:47.965Z,15.11
2017-05-02T08:26:28.504Z,15.03
2017-05-02T08:27:09.019Z,15.03
2017-05-02T08:27:49.495Z,15.06
2017-05-02T08:28:30.029Z,15.09
2017-05-02T08:29:10.529Z,15.19
2017-05-02T08:29:51.065Z,15.16
2017-05-02T08:30:31.664Z,15.14
2017-05-02T08:32:19.593Z,15.13
2017-05-02T08:33:00.125Z,15.1
2017-05-02T08:33:40.644Z,15.16
2017-05-02T08:34:21.151Z,15.16
2017-05-02T08:35:01.658Z,15.27
2017-05-02T08:35:42.195Z,15.31
2017-05-02T08:36:22.686Z,15.35
2017-05-02T08:37:03.193Z,15.35
2017-05-02T08:37:43.697Z,15.41
2017-05-02T08:38:24.208Z,15.36
2017-05-02T08:39:04.737Z,15.54
2017-05-02T08:39:45.235Z,15.39
2017-05-02T08:40:25.738Z,15.46
2017-05-02T08:41:06.246Z,15.5
2017-05-02T08:41:46.819Z,15.54
2017-05-02T08:42:27.329Z,15.57
2017-05-02T08:43:07.836Z,15.69
2017-05-02T08:43:48.384Z,15.71
2017-05-02T08:44:28.882Z,15.75
2017-05-02T08:45:09.426Z,15.75
2017-05-02T08:45:49.951Z,15.72
2017-05-02T08:46:30.469Z,15.67
2017-05-02T08:47:10.963Z,15.64
2017-05-02T08:47:51.472Z,15.69
2017-05-02T08:48:31.987Z,15.56
2017-05-02T08:49:12.507Z,15.62
2017-05-02T08:49:53.038Z,15.54